Opportunities

To know the detailed description of a Notification, please click on the Notification Ref. link on each row. To know more details of the post such as Qualification required, Experience requirement, Scale of Pay, Max Age, etc. please click on button, which is shown against each post (on the right side of the table, beside 'Apply Now' button). Then proceed after reading the instructions.

Sl.No. Company Notification Date Notification Ref. Vac. Type Vac. ID Vacancy Name No of Vac. Appl. Fee Appl. Start Date Appl. End Date Status
 
1 KMRL 12 Jan 2017 KMRL/HR/20170104 Contract 169 Manager(Track) 1 ₹500/- 12 Jan 2017 4:30 pm 25 Jan 2017 11:59 pm  
2 KMRL 11 Jan 2017 KMRL/HR/20170103 Regular 168 DGM (Telecom) 1 ₹500/- 11 Jan 2017 12:01 am 25 Jan 2017 11:59 pm  
3 KMRL 10 Jan 2017 KMRL/HR/20170101 Regular 164 JGM (Power & Traction) 1 ₹500/- 10 Jan 2017 11:45 pm 25 Jan 2017 11:59 pm  
4 KMRL 10 Jan 2017 KMRL/HR/20170101 Regular 165 Legal Officer 1 ₹500/- 10 Jan 2017 11:59 pm 25 Jan 2017 11:59 pm  
1 to 4 of 4 Records
Results per page
Sl.No. Company Notification Date Notification Ref. Vac. Type Vac. ID Vacancy Name No of Vacancies Appl. Start Date Appl. End Date
 
1 KMRL 14 Dec 2016 KMRL/HR/20161202 Regular 162 SDGM (P & S) 1 14 Dec 2016 12:00 am 28 Dec 2016 11:59 pm      Under Process
2 KMRL 14 Dec 2016 KMRL/HR/20161202 Regular 163 DGM (Mktg) 1 14 Dec 2016 12:00 am 28 Dec 2016 11:59 pm      Under Process
3 KMRL 23 Nov 2016 KMRL/HR/20161104 Contract 157 AGM (P&T) 1 23 Nov 2016 12:00 am 07 Dec 2016 11:59 pm      Under Process
4 KMRL 23 Nov 2016 KMRL/HR/20161104 Contract 158 AGM (E&M) 1 23 Nov 2016 12:00 am 07 Dec 2016 11:59 pm      Under Process
5 KMRL 09 Nov 2016 KMRL/HR/20161102 Contract 146 MGR (RS) 1 13 Nov 2016 12:00 pm 25 Nov 2016 11:59 pm      Under Process
6 KMRL 09 Nov 2016 KMRL/HR/20161102 Contract 147 DGM (RS) 1 13 Nov 2016 12:00 pm 25 Nov 2016 11:59 pm      Under Process
7 KMRL 09 Nov 2016 KMRL/HR/20161102 Contract 150 MGR (Civil) 1 13 Nov 2016 12:00 pm 25 Nov 2016 11:59 pm      Under Process
8 KMWT 07 Sep 2016 KMRL/HR/20160901 Regular 116 MGR (Civil) 2 07 Sep 2016 10:00 am 27 Sep 2016 11:59 pm      Under Process
9 KMWT 07 Sep 2016 KMRL/HR/20160901 Regular 117 MGR (Marine) 1 07 Sep 2016 10:00 am 27 Sep 2016 11:59 pm      Under Process
10 KMWT 07 Sep 2016 KMRL/HR/20160901 Regular 118 MGR (Boats) 1 07 Sep 2016 10:00 am 27 Sep 2016 11:59 pm      Under Process
1 to 10 of 16 Records
Results per page
Sl.No. Company Notification Date Notification Ref. Vac. Type Vac. ID Vacancy Name No of Vacancies Appl. Start Date Appl. End Date
  
1 KMRL 23 Nov 2016 KMRL/HR/20161104 Contract 159 MGR (Track) 1 23 Nov 2016 12:00 am 07 Dec 2016 11:59 pm      None found suitable
2 KMRL 23 Nov 2016 KMRL/HR/20161104 Contract 160 Legal Officer 1 23 Nov 2016 12:00 am 07 Dec 2016 11:59 pm      None found suitable
3 KMRL 23 Nov 2016 KMRL/HR/20161104 Regular 161 GM (WT) 1 23 Nov 2016 12:00 am 07 Dec 2016 11:59 pm      None found suitable
4 KMRL 09 Nov 2016 KMRL/HR/20161102 Contract 144 AM (E&M) 1 13 Nov 2016 12:00 pm 25 Nov 2016 11:59 pm      Selected
5 KMRL 09 Nov 2016 KMRL/HR/20161102 Contract 145 AM (L&E) 1 13 Nov 2016 12:00 pm 25 Nov 2016 11:59 pm      Selected
6 KMRL 09 Nov 2016 KMRL/HR/20161102 Contract 148 DGM (E&M) 1 13 Nov 2016 12:00 pm 25 Nov 2016 11:59 pm      Selected
7 KMRL 09 Nov 2016 KMRL/HR/20161102 Contract 149 DGM (P&T) 1 13 Nov 2016 12:00 pm 25 Nov 2016 11:59 pm      Selected
8 KMRL 05 Oct 2016 KMRL/HR/20161001 Contract 124 GM (Design) 1 05 Oct 2016 10:00 am 20 Oct 2016 11:59 pm      Selected
9 KMRL 28 Sep 2016 KMRL/HR/20160902 Regular 123 DGM/SDGM (Operations) 2 28 Sep 2016 10:00 am 17 Oct 2016 11:59 pm      Selected
10 KMWT 07 Sep 2016 KMRL/HR/20160901 Regular 113 GM (WT) 1 07 Sep 2016 10:00 am 27 Sep 2016 11:59 pm      None found suitable
1 to 10 of 124 Records
Results per page